createdAt,value
2023-04-23T00:01:20.697Z,64.17
2023-04-23T00:03:50.973Z,62.96
2023-04-23T00:06:19.177Z,62.54
2023-04-23T00:08:48.983Z,61.90
2023-04-23T00:11:17.900Z,62.30
2023-04-23T00:13:47.496Z,61.64
2023-04-23T00:16:17.817Z,62.14
2023-04-23T00:18:46.782Z,62.46
2023-04-23T00:21:15.182Z,61.57
2023-04-23T00:23:43.136Z,61.66
2023-04-23T00:26:11.909Z,62.18
2023-04-23T00:28:39.916Z,62.32
2023-04-23T00:31:08.033Z,63.03
2023-04-23T00:33:39.940Z,63.27
2023-04-23T00:36:08.673Z,63.72
2023-04-23T00:38:37.400Z,64.54
2023-04-23T00:41:06.115Z,66.17
2023-04-23T00:43:34.836Z,65.93
2023-04-23T00:46:02.919Z,66.71
2023-04-23T00:48:31.281Z,66.87
2023-04-23T00:51:04.282Z,67.82
2023-04-23T00:53:32.372Z,68.32
2023-04-23T00:56:02.908Z,68.81
2023-04-23T00:58:30.958Z,69.42
2023-04-23T01:00:59.886Z,68.95
2023-04-23T01:03:29.816Z,69.62
2023-04-23T01:05:58.409Z,69.35
2023-04-23T01:08:32.615Z,69.44
2023-04-23T01:11:01.531Z,69.50
2023-04-23T01:13:30.340Z,70.53
2023-04-23T01:15:58.626Z,70.10
2023-04-23T01:18:28.162Z,69.65
2023-04-23T01:20:56.535Z,70.20
2023-04-23T01:23:27.203Z,70.56
2023-04-23T01:25:55.523Z,70.09
2023-04-23T01:28:23.542Z,70.65
2023-04-23T01:30:52.834Z,69.32
2023-04-23T01:33:21.203Z,70.07
2023-04-23T01:35:51.274Z,69.44
2023-04-23T01:38:21.545Z,69.93
2023-04-23T01:40:50.871Z,70.56
2023-04-23T01:43:18.968Z,71.79
2023-04-23T01:45:47.396Z,70.46
2023-04-23T01:48:15.896Z,71.91
2023-04-23T01:50:44.927Z,71.14
2023-04-23T01:53:12.866Z,70.72
2023-04-23T01:55:41.411Z,70.39
2023-04-23T01:58:10.703Z,70.48
2023-04-23T02:00:38.713Z,70.43
2023-04-23T02:03:07.160Z,69.87
2023-04-23T02:05:36.967Z,69.57
2023-04-23T02:08:05.429Z,70.06
2023-04-23T02:10:33.561Z,70.02
2023-04-23T02:13:02.714Z,70.51
2023-04-23T02:15:32.564Z,71.42
2023-04-23T02:18:01.863Z,72.14
2023-04-23T02:20:29.755Z,71.82
2023-04-23T02:22:57.756Z,72.99
2023-04-23T02:25:27.819Z,73.94
2023-04-23T02:27:57.626Z,74.07
2023-04-23T02:30:25.762Z,73.97
2023-04-23T02:32:55.631Z,73.63
2023-04-23T02:35:23.970Z,74.65
2023-04-23T02:37:52.232Z,74.98
2023-04-23T02:40:20.371Z,77.80
2023-04-23T02:42:48.297Z,77.23
2023-04-23T02:45:16.383Z,78.26
2023-04-23T02:47:45.169Z,80.42
2023-04-23T02:50:14.630Z,80.91
2023-04-23T02:52:42.545Z,82.07
2023-04-23T02:55:12.151Z,82.13
2023-04-23T02:57:40.982Z,83.53
2023-04-23T03:00:12.358Z,83.83
2023-04-23T03:02:43.596Z,82.22
2023-04-23T03:05:15.606Z,81.25
2023-04-23T03:07:43.736Z,81.79
2023-04-23T03:10:12.165Z,81.37
2023-04-23T03:12:40.283Z,80.93
2023-04-23T03:15:08.951Z,80.35
2023-04-23T03:17:38.478Z,85.27
2023-04-23T03:20:10.997Z,84.92
2023-04-23T03:22:41.370Z,84.84
2023-04-23T03:25:10.333Z,85.71
2023-04-23T03:27:40.387Z,85.67
2023-04-23T03:30:09.997Z,88.87
2023-04-23T03:32:38.350Z,86.68
2023-04-23T03:35:07.113Z,87.73
2023-04-23T03:37:35.169Z,86.30
2023-04-23T03:40:07.807Z,85.15
2023-04-23T03:42:39.414Z,84.32
2023-04-23T03:45:09.454Z,84.16
2023-04-23T03:47:37.713Z,83.75
2023-04-23T03:50:07.128Z,84.48
2023-04-23T03:52:35.622Z,84.80
2023-04-23T03:55:05.370Z,84.38
2023-04-23T03:57:40.405Z,83.53
2023-04-23T04:00:41.103Z,82.84
2023-04-23T04:03:10.257Z,82.83
2023-04-23T04:05:40.654Z,84.04
2023-04-23T04:08:10.476Z,84.57
2023-04-23T04:10:40.921Z,83.73
2023-04-23T04:13:08.922Z,84.76
2023-04-23T04:15:36.927Z,85.37
2023-04-23T04:18:04.879Z,84.79
2023-04-23T04:20:32.701Z,84.06
2023-04-23T04:23:00.722Z,84.81
2023-04-23T04:25:30.950Z,84.60
2023-04-23T04:28:00.453Z,84.86
2023-04-23T04:30:28.343Z,85.57
2023-04-23T04:32:56.305Z,85.76
2023-04-23T04:35:24.425Z,86.14
2023-04-23T04:37:54.863Z,86.78
2023-04-23T04:40:22.991Z,85.73
2023-04-23T04:42:51.464Z,86.16
2023-04-23T04:45:20.950Z,86.09
2023-04-23T04:47:48.873Z,86.42
2023-04-23T04:50:17.063Z,87.72
2023-04-23T04:52:45.043Z,87.21
2023-04-23T04:55:12.935Z,87.50
2023-04-23T04:57:40.871Z,88.17
2023-04-23T05:00:24.657Z,88.08
2023-04-23T05:02:53.156Z,87.13
2023-04-23T05:05:25.036Z,86.52
2023-04-23T05:07:54.291Z,86.10
2023-04-23T05:10:22.710Z,85.79
2023-04-23T05:12:51.911Z,86.11
2023-04-23T05:15:20.118Z,86.12
2023-04-23T05:17:50.337Z,85.37
2023-04-23T05:20:21.149Z,84.63
2023-04-23T05:22:49.175Z,83.79
2023-04-23T05:25:17.288Z,83.51
2023-04-23T05:27:45.304Z,82.07
2023-04-23T05:30:13.489Z,81.75
2023-04-23T05:32:41.604Z,80.82
2023-04-23T05:35:11.156Z,80.33
2023-04-23T05:37:40.167Z,80.35
2023-04-23T05:40:11.442Z,81.00
2023-04-23T05:42:39.538Z,79.18
2023-04-23T05:45:09.312Z,79.05
2023-04-23T05:47:37.843Z,78.60
2023-04-23T05:50:07.109Z,77.24
2023-04-23T05:52:37.345Z,76.95
2023-04-23T05:55:09.921Z,75.57
2023-04-23T05:57:38.714Z,74.55
2023-04-23T06:00:11.209Z,73.88
2023-04-23T06:02:43.151Z,76.42
2023-04-23T06:05:12.101Z,76.36
2023-04-23T06:07:41.705Z,76.26
2023-04-23T06:10:10.891Z,76.06
2023-04-23T06:12:39.938Z,76.66
2023-04-23T06:15:09.320Z,75.95
2023-04-23T06:17:37.803Z,76.15
2023-04-23T06:20:07.323Z,75.33
2023-04-23T06:22:35.590Z,75.13
2023-04-23T06:25:05.592Z,74.82
2023-04-23T06:27:33.884Z,74.67
2023-04-23T06:30:09.509Z,74.96
2023-04-23T06:32:37.519Z,76.62
2023-04-23T06:35:06.264Z,76.15
2023-04-23T06:37:34.302Z,76.05
2023-04-23T06:40:02.390Z,75.34
2023-04-23T06:42:31.795Z,75.25
2023-04-23T06:45:15.659Z,74.69
2023-04-23T06:47:43.723Z,74.29
2023-04-23T06:50:12.046Z,73.49
2023-04-23T06:52:40.288Z,73.17
2023-04-23T06:55:10.116Z,72.97
2023-04-23T06:57:41.428Z,72.55
2023-04-23T07:00:11.872Z,71.34
2023-04-23T07:02:42.833Z,70.62
2023-04-23T07:05:12.367Z,70.40
2023-04-23T07:07:43.548Z,71.59
2023-04-23T07:10:16.291Z,70.61
2023-04-23T07:12:47.199Z,67.21
2023-04-23T07:15:15.909Z,70.13
2023-04-23T07:17:43.991Z,71.51
2023-04-23T07:20:12.581Z,71.64
2023-04-23T07:22:40.807Z,72.50
2023-04-23T07:25:09.792Z,69.80
2023-04-23T07:27:37.978Z,67.93
2023-04-23T07:30:10.455Z,68.86
2023-04-23T07:32:41.321Z,69.06
2023-04-23T07:35:12.067Z,69.27
2023-04-23T07:37:40.123Z,69.88
2023-04-23T07:40:10.563Z,68.42
2023-04-23T07:42:39.479Z,68.65
2023-04-23T07:45:12.739Z,67.98
2023-04-23T07:47:41.105Z,67.46
2023-04-23T07:50:10.039Z,67.55
2023-04-23T07:52:38.120Z,66.38
2023-04-23T07:55:07.501Z,65.13
2023-04-23T07:57:35.378Z,68.06
2023-04-23T08:00:03.505Z,62.05
2023-04-23T08:02:41.520Z,60.66
2023-04-23T08:05:10.747Z,59.13
2023-04-23T08:07:39.572Z,58.61
2023-04-23T08:10:08.783Z,60.69
2023-04-23T08:12:36.835Z,60.44
2023-04-23T08:15:05.463Z,61.01
2023-04-23T08:17:41.870Z,61.70
2023-04-23T08:20:10.463Z,60.05
2023-04-23T08:22:38.472Z,60.36
2023-04-23T08:25:07.554Z,61.61
2023-04-23T08:27:42.703Z,62.88
2023-04-23T08:30:22.099Z,61.31
2023-04-23T08:32:54.724Z,62.52
2023-04-23T08:35:23.651Z,60.07
2023-04-23T08:37:52.342Z,58.19
2023-04-23T08:40:21.351Z,58.54
2023-04-23T08:43:03.347Z,58.89
2023-04-23T08:45:32.053Z,58.84
2023-04-23T08:48:03.191Z,61.47
2023-04-23T08:50:32.004Z,60.50
2023-04-23T08:53:01.498Z,59.48
2023-04-23T08:55:29.947Z,59.08
2023-04-23T08:58:00.388Z,60.05
2023-04-23T09:00:32.105Z,58.77
2023-04-23T09:03:02.634Z,59.13
2023-04-23T09:05:34.051Z,54.32
2023-04-23T09:08:02.338Z,55.10
2023-04-23T09:10:35.518Z,54.40
2023-04-23T09:13:03.935Z,54.66
2023-04-23T09:15:31.924Z,59.19
2023-04-23T09:18:02.866Z,57.80
2023-04-23T09:20:30.920Z,59.84
2023-04-23T09:22:58.861Z,57.33
2023-04-23T09:25:27.412Z,57.13
2023-04-23T09:27:55.503Z,54.69
2023-04-23T09:30:25.792Z,54.88
2023-04-23T09:32:54.149Z,57.80
2023-04-23T09:35:30.100Z,54.49
2023-04-23T09:37:58.456Z,52.35
2023-04-23T09:40:28.957Z,52.58
2023-04-23T09:42:57.090Z,52.28
2023-04-23T09:45:26.168Z,49.75
2023-04-23T09:47:55.592Z,51.66
2023-04-23T09:50:33.772Z,50.73
2023-04-23T09:53:03.452Z,48.54
2023-04-23T09:55:37.830Z,51.00
2023-04-23T09:58:07.131Z,49.61
2023-04-23T10:00:37.628Z,48.00
2023-04-23T10:03:09.040Z,48.01
2023-04-23T10:08:14.632Z,48.93
2023-04-23T10:10:57.393Z,47.83
2023-04-23T10:13:31.296Z,46.96
2023-04-23T10:16:18.075Z,47.80
2023-04-23T10:18:49.883Z,48.23
2023-04-23T10:21:21.653Z,47.99
2023-04-23T10:23:52.975Z,45.28
2023-04-23T10:26:24.969Z,45.39
2023-04-23T10:28:55.867Z,46.11
2023-04-23T10:31:24.723Z,43.56
2023-04-23T10:33:59.399Z,43.50
2023-04-23T10:36:30.285Z,44.10
2023-04-23T10:39:04.083Z,43.16
2023-04-23T10:41:39.374Z,42.50
2023-04-23T10:44:15.947Z,42.16
2023-04-23T10:46:55.230Z,43.48
2023-04-23T10:49:25.204Z,41.90
2023-04-23T10:54:36.768Z,41.12
2023-04-23T10:57:07.269Z,41.36
2023-04-23T10:59:37.140Z,41.36
2023-04-23T11:02:11.062Z,42.47
2023-04-23T11:04:46.025Z,46.19
2023-04-23T11:07:16.713Z,44.85
2023-04-23T11:09:47.709Z,44.18
2023-04-23T11:12:33.982Z,42.92
2023-04-23T11:15:12.360Z,43.07
2023-04-23T11:18:02.203Z,42.18
2023-04-23T11:20:31.148Z,40.56
2023-04-23T11:23:01.192Z,41.50
2023-04-23T11:25:30.404Z,41.14
2023-04-23T11:27:59.610Z,41.26
2023-04-23T11:30:29.313Z,40.18
2023-04-23T11:32:59.999Z,41.38
2023-04-23T11:35:30.086Z,39.41
2023-04-23T11:37:58.069Z,41.38
2023-04-23T11:40:30.885Z,39.46
2023-04-23T11:42:59.142Z,40.55
2023-04-23T11:45:29.106Z,41.06
2023-04-23T11:47:58.924Z,37.90
2023-04-23T11:50:29.692Z,38.79
2023-04-23T11:52:58.626Z,38.14
2023-04-23T11:55:30.558Z,37.16
2023-04-23T11:57:59.350Z,37.22
2023-04-23T12:00:28.458Z,36.84
2023-04-23T12:02:58.993Z,37.78
2023-04-23T12:05:30.937Z,36.36
2023-04-23T12:08:08.893Z,36.95
2023-04-23T12:10:46.948Z,36.96
2023-04-23T12:13:15.899Z,38.22
2023-04-23T12:15:51.358Z,37.44
2023-04-23T12:19:15.587Z,36.51
2023-04-23T12:22:35.060Z,38.40
2023-04-23T12:25:18.183Z,38.50
2023-04-23T12:28:17.658Z,39.74
2023-04-23T12:30:48.188Z,38.85
2023-04-23T12:33:16.999Z,38.59
2023-04-23T12:35:46.778Z,39.13
2023-04-23T12:38:25.246Z,38.59
2023-04-23T12:40:54.816Z,37.39
2023-04-23T12:43:24.551Z,38.14
2023-04-23T12:45:52.511Z,37.70
2023-04-23T12:48:20.574Z,35.89
2023-04-23T12:50:51.338Z,36.10
2023-04-23T12:53:21.794Z,36.85
2023-04-23T12:55:50.257Z,38.89
2023-04-23T12:58:18.253Z,37.91
2023-04-23T13:00:47.644Z,38.09
2023-04-23T13:03:17.472Z,36.31
2023-04-23T13:05:45.464Z,35.10
2023-04-23T13:08:13.574Z,38.61
2023-04-23T13:10:41.617Z,38.51
2023-04-23T13:13:09.575Z,38.34
2023-04-23T13:15:37.744Z,37.92
2023-04-23T13:18:07.507Z,38.66
2023-04-23T13:20:35.494Z,37.36
2023-04-23T13:23:03.865Z,36.97
2023-04-23T13:25:34.260Z,37.31
2023-04-23T13:28:02.251Z,36.90
2023-04-23T13:30:30.317Z,36.86
2023-04-23T13:32:59.293Z,38.29
2023-04-23T13:35:28.786Z,37.82
2023-04-23T13:37:56.884Z,36.60
2023-04-23T13:40:27.397Z,36.01
2023-04-23T13:42:55.584Z,35.55
2023-04-23T13:45:23.557Z,35.73
2023-04-23T13:47:51.998Z,35.37
2023-04-23T13:50:20.039Z,33.06
2023-04-23T13:52:49.338Z,34.85
2023-04-23T13:55:17.356Z,35.18
2023-04-23T13:57:45.854Z,34.02
2023-04-23T14:00:15.002Z,33.86
2023-04-23T14:02:43.065Z,33.08
2023-04-23T14:05:11.234Z,34.25
2023-04-23T14:07:39.170Z,34.46
2023-04-23T14:10:09.689Z,33.39
2023-04-23T14:12:38.957Z,34.41
2023-04-23T14:15:08.560Z,33.27
2023-04-23T14:17:37.213Z,33.31
2023-04-23T14:20:06.545Z,33.63
2023-04-23T14:22:34.554Z,33.40
2023-04-23T14:25:04.351Z,34.14
2023-04-23T14:27:42.038Z,33.33
2023-04-23T14:30:17.052Z,33.94
2023-04-23T14:32:48.442Z,34.09
2023-04-23T14:35:26.770Z,33.57
2023-04-23T14:38:19.394Z,33.78
2023-04-23T14:40:47.311Z,33.15
2023-04-23T14:43:16.935Z,32.99
2023-04-23T14:45:45.395Z,33.16
2023-04-23T14:48:13.550Z,33.74
2023-04-23T14:50:41.577Z,33.69
2023-04-23T14:53:11.232Z,32.89
2023-04-23T14:55:42.871Z,33.19
2023-04-23T14:58:11.156Z,33.55
2023-04-23T15:00:42.640Z,33.46
2023-04-23T15:03:11.464Z,33.45
2023-04-23T15:05:41.683Z,32.77
2023-04-23T15:08:09.697Z,34.01
2023-04-23T15:10:37.971Z,34.37
2023-04-23T15:13:30.389Z,34.34
2023-04-23T15:16:05.740Z,35.52
2023-04-23T15:18:36.112Z,37.83
2023-04-23T15:21:11.608Z,43.46
2023-04-23T15:24:19.495Z,41.88
2023-04-23T15:27:00.763Z,40.62
2023-04-23T15:30:05.166Z,41.73
2023-04-23T15:33:16.231Z,42.28
2023-04-23T15:36:00.779Z,44.26
2023-04-23T15:38:31.035Z,42.73
2023-04-23T15:41:00.471Z,39.70
2023-04-23T15:43:55.470Z,40.35
2023-04-23T15:46:53.472Z,40.62
2023-04-23T15:49:43.400Z,41.93
2023-04-23T15:52:21.202Z,42.82
2023-04-23T15:55:06.839Z,42.77
2023-04-23T15:58:04.149Z,44.09
2023-04-23T16:00:53.737Z,45.51
2023-04-23T16:03:28.560Z,45.78
2023-04-23T16:06:36.980Z,46.73
2023-04-23T16:09:48.431Z,47.11
2023-04-23T16:12:48.920Z,46.74
2023-04-23T16:15:17.909Z,46.91
2023-04-23T16:17:47.140Z,46.44
2023-04-23T16:20:16.226Z,46.68
2023-04-23T16:23:04.281Z,45.78
2023-04-23T16:25:39.149Z,45.57
2023-04-23T16:28:13.229Z,46.43
2023-04-23T16:30:48.485Z,46.15
2023-04-23T16:33:51.952Z,47.08
2023-04-23T16:36:42.807Z,51.84
2023-04-23T16:39:13.469Z,54.79
2023-04-23T16:41:42.125Z,63.09
2023-04-23T16:44:11.709Z,69.00
2023-04-23T16:46:57.947Z,71.77
2023-04-23T16:49:26.702Z,67.51
2023-04-23T16:51:57.633Z,63.13
2023-04-23T16:54:27.357Z,63.01
2023-04-23T16:56:55.478Z,60.12
2023-04-23T16:59:24.785Z,61.03
2023-04-23T17:01:54.604Z,60.76
2023-04-23T17:04:24.924Z,61.62
2023-04-23T17:06:55.312Z,62.46
2023-04-23T17:09:23.365Z,63.77
2023-04-23T17:11:52.774Z,66.67
2023-04-23T17:14:20.749Z,68.79
2023-04-23T17:16:48.735Z,68.04
2023-04-23T17:19:19.130Z,66.62
2023-04-23T17:21:49.832Z,68.38
2023-04-23T17:24:18.210Z,69.96
2023-04-23T17:26:47.620Z,67.79
2023-04-23T17:29:17.036Z,68.69
2023-04-23T17:31:46.511Z,68.85
2023-04-23T17:34:14.846Z,67.24
2023-04-23T17:36:42.920Z,67.79
2023-04-23T17:39:15.287Z,67.91
2023-04-23T17:41:44.393Z,67.43
2023-04-23T17:44:17.369Z,68.45
2023-04-23T17:46:54.744Z,70.44
2023-04-23T17:49:27.044Z,73.38
2023-04-23T17:51:58.843Z,71.53
2023-04-23T17:54:26.989Z,70.27
2023-04-23T17:56:56.106Z,71.51
2023-04-23T17:59:27.675Z,71.91
2023-04-23T18:01:59.055Z,70.81
2023-04-23T18:04:29.107Z,72.67
2023-04-23T18:06:57.600Z,73.92
2023-04-23T18:09:27.833Z,70.89
2023-04-23T18:12:05.687Z,72.17
2023-04-23T18:14:36.116Z,75.19
2023-04-23T18:17:08.123Z,72.20
2023-04-23T18:19:37.378Z,74.42
2023-04-23T18:22:14.294Z,74.22
2023-04-23T18:25:02.057Z,72.25
2023-04-23T18:27:35.765Z,72.28
2023-04-23T18:30:09.587Z,74.48
2023-04-23T18:32:43.696Z,73.52
2023-04-23T18:35:23.174Z,74.68
2023-04-23T18:38:02.624Z,72.72
2023-04-23T18:40:31.453Z,74.29
2023-04-23T18:43:00.132Z,74.46
2023-04-23T18:45:31.101Z,78.65
2023-04-23T18:48:19.563Z,77.54
2023-04-23T18:50:51.126Z,76.53
2023-04-23T18:53:21.582Z,75.01
2023-04-23T18:55:50.527Z,74.33
2023-04-23T18:58:18.721Z,73.83
2023-04-23T19:00:48.480Z,74.31
2023-04-23T19:03:26.141Z,73.44
2023-04-23T19:05:56.267Z,73.16
2023-04-23T19:08:28.659Z,72.18
2023-04-23T19:10:57.185Z,73.63
2023-04-23T19:13:25.557Z,72.34
2023-04-23T19:15:55.339Z,74.50
2023-04-23T19:18:24.189Z,76.27
2023-04-23T19:20:52.594Z,77.23
2023-04-23T19:23:21.485Z,72.34
2023-04-23T19:25:49.858Z,68.69
2023-04-23T19:28:18.103Z,68.73
2023-04-23T19:30:46.965Z,65.84
2023-04-23T19:33:16.782Z,65.07
2023-04-23T19:35:44.972Z,65.45
2023-04-23T19:38:13.488Z,66.68
2023-04-23T19:40:42.812Z,66.39
2023-04-23T19:43:12.785Z,68.59
2023-04-23T19:45:41.117Z,71.61
2023-04-23T19:48:09.258Z,71.46
2023-04-23T19:50:38.825Z,72.11
2023-04-23T19:53:07.108Z,72.25
2023-04-23T19:55:36.263Z,72.08
2023-04-23T19:58:06.511Z,72.14
2023-04-23T20:00:37.703Z,73.44
2023-04-23T20:03:06.986Z,73.23
2023-04-23T20:05:36.089Z,72.88
2023-04-23T20:08:11.744Z,72.81
2023-04-23T20:10:39.998Z,73.59
2023-04-23T20:13:08.548Z,73.06
2023-04-23T20:15:37.022Z,72.59
2023-04-23T20:18:05.631Z,72.71
2023-04-23T20:20:36.611Z,72.58
2023-04-23T20:23:06.580Z,73.20
2023-04-23T20:25:36.371Z,71.44
2023-04-23T20:28:05.222Z,71.75
2023-04-23T20:30:33.571Z,71.97
2023-04-23T20:33:01.858Z,72.75
2023-04-23T20:35:30.789Z,72.49
2023-04-23T20:38:01.382Z,72.04
2023-04-23T20:40:34.628Z,71.11
2023-04-23T20:43:04.654Z,72.17
2023-04-23T20:45:34.584Z,72.24
2023-04-23T20:48:03.741Z,72.44
2023-04-23T20:50:32.813Z,71.61
2023-04-23T20:53:02.533Z,70.01
2023-04-23T20:55:33.785Z,70.68
2023-04-23T20:58:04.509Z,71.96
2023-04-23T21:00:35.019Z,72.00
2023-04-23T21:03:03.582Z,72.63
2023-04-23T21:05:34.636Z,71.70
2023-04-23T21:08:03.046Z,70.82
2023-04-23T21:10:31.269Z,71.05
2023-04-23T21:13:01.191Z,70.89
2023-04-23T21:15:34.106Z,69.95
2023-04-23T21:18:03.168Z,71.16
2023-04-23T21:20:33.800Z,71.18
2023-04-23T21:23:02.504Z,71.54
2023-04-23T21:25:35.407Z,71.79
2023-04-23T21:28:05.875Z,70.67
2023-04-23T21:30:46.102Z,69.00
2023-04-23T21:33:15.213Z,68.95
2023-04-23T21:35:44.412Z,68.54
2023-04-23T21:38:15.926Z,68.78
2023-04-23T21:40:45.240Z,68.06
2023-04-23T21:43:16.485Z,67.69
2023-04-23T21:45:45.049Z,68.43
2023-04-23T21:48:13.410Z,67.98
2023-04-23T21:50:42.193Z,68.48
2023-04-23T21:53:13.317Z,67.62
2023-04-23T21:55:42.443Z,67.48
2023-04-23T21:58:17.124Z,67.55
2023-04-23T22:00:49.006Z,67.53
2023-04-23T22:03:26.159Z,67.73
2023-04-23T22:06:09.452Z,68.30
2023-04-23T22:08:40.303Z,67.99
2023-04-23T22:11:09.025Z,67.61
2023-04-23T22:13:37.653Z,68.30
2023-04-23T22:16:20.326Z,70.89
2023-04-23T22:18:53.664Z,69.66
2023-04-23T22:21:22.044Z,71.53
2023-04-23T22:23:51.095Z,69.31
2023-04-23T22:26:19.906Z,70.74
2023-04-23T22:28:47.848Z,70.58
2023-04-23T22:31:19.018Z,71.30
2023-04-23T22:33:53.228Z,72.21
2023-04-23T22:36:21.444Z,71.21
2023-04-23T22:38:49.659Z,71.56
2023-04-23T22:41:17.622Z,70.74
2023-04-23T22:43:46.449Z,71.56
2023-04-23T22:46:14.712Z,70.36
2023-04-23T22:48:47.759Z,71.07
2023-04-23T22:51:15.723Z,70.07
2023-04-23T22:53:44.366Z,69.44
2023-04-23T22:56:15.133Z,70.28
2023-04-23T22:58:43.050Z,71.24
2023-04-23T23:01:11.051Z,69.69
2023-04-23T23:03:39.482Z,70.30
2023-04-23T23:06:09.173Z,71.25
2023-04-23T23:08:37.135Z,70.46
2023-04-23T23:11:05.313Z,70.56
2023-04-23T23:13:33.291Z,71.13
2023-04-23T23:16:05.032Z,71.20
2023-04-23T23:18:33.826Z,71.34
2023-04-23T23:21:02.059Z,70.61
2023-04-23T23:23:31.791Z,71.34
2023-04-23T23:26:00.366Z,70.37
2023-04-23T23:28:28.673Z,70.13
2023-04-23T23:30:58.084Z,72.01
2023-04-23T23:33:27.186Z,71.09
2023-04-23T23:35:56.219Z,70.93
2023-04-23T23:38:25.295Z,70.27
2023-04-23T23:40:54.692Z,70.47
2023-04-23T23:43:23.007Z,71.60
2023-04-23T23:45:51.845Z,70.44
2023-04-23T23:48:20.332Z,70.07
2023-04-23T23:50:48.400Z,70.04
2023-04-23T23:53:16.389Z,69.06
2023-04-23T23:55:45.008Z,68.75
2023-04-23T23:58:14.731Z,69.82
